CYXL

Sioux Lookout Airport

Sioux Lookout, Ontario, Canada
METAR CYXL 150000Z 32004KT 15SM FEW050 SCT240 18/07 A2996 RMK SC2CI2 SLP153 DENSITY ALT 1900FT
Observed Flight Rules
Aug-15 @ 00:00 UTC (an hour ago) Visual Flight Rules
Wind Visibility Clouds
320° at 4 knots 15 miles
  • Few at 5,000' AGL
  • Scattered at 24,000' AGL
Temperatures Readings
Current 18°C / 64°F
Dewpoint 7°C / 45°F
Humidity 49%
Altimeter 29.96" Hg
Pressure 1015.3 hPa
Elevation 390
METAR CYXL 150000Z 32004KT 15SM FEW050 SCT240 18/07 A2996 RMK SC2CI2 SLP153 DENSITY ALT 1900FT
Observed Flight Rules
Aug-15 @ 00:00 UTC
(an hour ago)
VFR
Wind Visibility
320° at 4 knots 15 miles
Clouds
  • Few at 5,000' AGL
  • Scattered at 24,000' AGL
Temperature Dewpoint
18°C / 64°F 7°C / 45°F
Humidity Altimeter Pressure
49% 29.96" Hg 1015.3 hPa